Observations for FAIRFORD RAF, United Kingdom (EGVA)

EGVA 190316Z AUTO 20009KT 9999 SCT039 16/14 A2982 RMK AO2 SLP099 $
EGVA 190301Z AUTO 20009KT 9999 BKN038 BKN050 16/14 A2983 RMK AO2 SLP103 $
EGVA 190256Z AUTO 20009KT 9999 SCT039 BKN050 16/14 A2983 RMK AO2 SLP103 60007 T01600142 58002 $ 
EGVA 190236Z AUTO 22010KT 9999 BKN049 16/14 A2983 RMK AO2 SLP103 $
EGVA 190211Z AUTO 22009KT 9999 OVC050 16/15 A2983 RMK AO2 SLP103 $
EGVA 190251Z AUTO 21010KT 9999 FEW040 BKN050 16/14 A2983 RMK AO2 SLP103 $
EGVA 190156Z AUTO 21008KT 9999 FEW011 BKN045 OVC055 16/15 A2983 RMK AO2 SLP103 T01620151 $  
EGVA 190126Z AUTO 23008KT 9999 OVC048 16/15 A2984 RMK AO2 SLP106 $
EGVA 190106Z AUTO 24008KT 9999 SCT014 SCT019 OVC050 16/15 A2984 RMK AO2 SLP106 $
EGVA 190101Z AUTO 24009KT 9999 BKN014 BKN021 OVC050 16/15 A2984 RMK AO2 SLP106 $
EGVA 190056Z AUTO 24009KT 9999 BKN016 BKN023 OVC050 16/15 A2984 RMK AO2 RAE2358DZB09E10RAB10E22RAB33E55 SLP106 P0007 T01610148 $
EGVA 190033Z AUTO 22012KT 9999 -RA BKN018 OVC025 17/15 A2984 RMK AO2 RAE2358DZB09E10RAB10E22RAB33 SLP106 $
EGVA 190040Z AUTO 25013KT 9999 -RA FEW005 SCT014 OVC020 16/15 A2984 RMK AO2 RAE2358DZB09E10RAB10E22RAB33 CIG 017 RWY09 SLP106 $
EGVA 190041Z AUTO 26014KT 9999 -RA FEW005 SCT014 OVC020 16/15 A2984 RMK AO2 WSHFT 29 RAE2358DZB09E10RAB10E22RAB33 CIG 017 RWY09 SLP106 $
EGVA 190009Z AUTO 20012KT 9999 -DZ BKN021 OVC027 17/15 A2983 RMK AO2 RAE2358DZB09 CIG 019 RWY09 SLP103 $
EGVA 190019Z AUTO 21012KT 9999 -RA FEW007 BKN018 OVC025 17/15 A2983 RMK AO2 RAE2358DZB09E10RAB10 SLP103 $
EGVA 190022Z AUTO 21011KT 9999 BKN018 OVC025 17/15 A2983 RMK AO2 RAE2358DZB09E10RAB10E22 SLP103 $
EGVA 190003Z AUTO 21012KT 9999 BKN019 OVC027 17/14 A2983 RMK AO2 RAE2358 SLP103$
EGVA 190046Z AUTO 24013KT 9999 -RA FEW005 SCT013 OVC017 16/15 A2984 RMK AO2 RAE2358DZB09E10RAB10E22RAB33 SLP106 $
EGVA 190055Z AUTO 24009KT 9999 BKN016 OVC023 16/15 A2984 RMK AO2 RAE2358DZB09E10RAB10E22RAB33E55 SLP106 $
EGVA 182356Z AUTO 20011KT 9999 -RA BKN021 OVC027 17/14 A2983 RMK AO2 RAB18E29RAB43 CIG 020 RWY09 SLP103 P0000 60000 T01660144 10186 20166 402070164 58002 $ 
EGVA 182329Z AUTO 22010KT 9999 BKN022 OVC039 17/14 A2984 RMK AO2 RAB18E29 SLP106 $
EGVA 182343Z AUTO 21012KT 9999 -RA BKN021 OVC035 17/14 A2984 RMK AO2 RAB18E29RAB43 BKN V OVC CIG 020 RWY09 SLP106 $
EGVA 182311Z AUTO 21011KT 5000 HZ BKN023 BKN041 OVC048 18/14 A2984 RMK AO2 CIG 023V041 SLP106 $
EGVA 182318Z AUTO 21011KT 9999 -RA BKN023 OVC039 17/14 A2984 RMK AO2 RAB18 CIG 023V041 SLP106 $
EGVA 182358Z AUTO 20012KT 9999 BKN021 OVC027 17/14 A2983 RMK AO2 RAE58 CIG 020 RWY09 SLP103 $
EGVA 182256Z AUTO 21011KT 6000 HZ FEW021 OVC045 18/14 A2984 RMK AO2 SLP106 T01750136 $  
EGVA 182231Z AUTO 22013G19KT 8000 HZ BKN048 OVC060 17/14 A2984 RMK AO2 SLP106 $
EGVA 182156Z AUTO 22012G23KT 9999 FEW019 OVC055 18/14 A2984 RMK AO2 SLP106 T01760139 $  
EGVA 182056Z AUTO 21015G21KT 9999 SCT020 OVC050 18/14 A2984 RMK AO2 SLP106 T01770140 52006 $
EGVA 182026Z AUTO 21017G23KT 8000 HZ FEW023 OVC050 18/14 A2983 RMK AO2 SLP103 $
EGVA 181956Z AUTO 21015KT 9999 OVC047 18/14 A2983 RMK AO2 SLP103 T01780141 $
EGVA 181936Z AUTO 20017G23KT 9999 FEW020 OVC049 18/14 A2983 RMK AO2 SLP103 $
EGVA 181856Z AUTO 20014G20KT 9999 BKN050 18/14 A2982 RMK AO2 SLP100 T01780141 $ 
EGVA 181756Z AUTO 21012KT 9999 BKN055 19/14 A2982 RMK AO2 SLP099 60000 T01860141 10207 20184 52004 $
EGVA 181706Z AUTO 21015G21KT 9999 SCT027 SCT036 SCT060 19/14 A2981 RMK AO2 SLP096 $
EGVA 181701Z AUTO 21014G22KT 9999 SCT027 BKN036 BKN060 19/14 A2981 RMK AO2 SLP096 $
EGVA 181656Z AUTO 21014G22KT 9999 SCT025 BKN037 BKN060 19/14 A2981 RMK AO2 SLP096 T01920142 $   
EGVA 181646Z AUTO 21017G20KT 9999 SCT027 BKN038 BKN049 BKN060 19/14 A2981 RMK AO2 SLP096 $
EGVA 181556Z AUTO 23014G23KT 9999 BKN026 OVC036 20/15 A2981 RMK AO2 RAE00DZB00E04 CIG 026V034 SLP096 P0000 T01950145 $  
EGVA 181514Z AUTO 22017G21KT 9999 BKN023 BKN034 19/15 A2981 RMK AO2 RAE00DZB00E04 CIG 023V034 BKN023 V SCT SLP096 $
EGVA 181524Z AUTO 22016KT 9999 SCT023 BKN034 19/15 A2981 RMK AO2 RAE00DZB00E04 SLP096 $
EGVA 181504Z AUTO 23012G19KT 9999 SCT023 BKN034 19/15 A2981 RMK AO2 RAE00DZB00E04 SLP096 $
EGVA 181554Z AUTO 22018G23KT 9999 BKN026 OVC036 20/15 A2981 RMK AO2 RAE00DZB00E04 CIG 026V034 SLP096 $
EGVA 181456Z AUTO 22017G19KT 9999 -RA FEW014 SCT025 OVC033 19/15 A2981 RMK AO2 DZB39E43DZB44E49RAB49 SLP096 P0000 60000 T01860153 52009 $   
EGVA 181439Z AUTO 22017G22KT 9999 -DZ BKN028 BKN036 BKN060 20/15 A2980 RMK AO2 DZB39 SLP092 $
EGVA 181443Z AUTO 23013G22KT 9000 HZ SCT029 BKN035 BKN060 20/14 A2981 RMK AO2 DZB39E43 SLP096 $
EGVA 181444Z AUTO 23014G22KT 9000 -DZ SCT029 BKN035 BKN060 20/15 A2981 RMK AO2 DZB39E43DZB44 SLP096 $
EGVA 181421Z AUTO 22017G22KT 9999 SCT028 BKN035 BKN048 OVC060 20/14 A2980 RMK AO2 SLP092 $
EGVA 181356Z AUTO 22017G23KT 8000 HZ BKN035 OVC043 20/13 A2980 RMK AO2 SLP092 T02040133 $   
EGVA 181311Z AUTO 23013KT 9999 BKN032 OVC042 20/14 A2979 RMK AO2 SLP089 $
EGVA 181256Z AUTO 23013KT 9999 BKN028 OVC035 20/14 A2979 RMK AO2 SLP089 T02040136 $ 
EGVA 181156Z AUTO 24014G20KT 9999 OVC026 19/13 A2978 RMK AO2 SLP086 60000 T01890129 10195 20164 52028 $ 
EGVA 181056Z AUTO 24017G23KT 9000 HZ BKN029 19/12 A2976 RMK AO2 PK WND 24026/28 SLP079 T01900118 $  
EGVA 181036Z AUTO 25015G26KT 9999 BKN026 19/12 A2976 RMK AO2 CIG 026V031 BKN V SCT SLP079 $
EGVA 181041Z AUTO 25017G23KT 9999 SCT026 SCT032 19/12 A2976 RMK AO2 SLP079 $
EGVA 181021Z AUTO 25013G22KT 9999 SCT026 SCT031 18/12 A2975 RMK AO2 SLP076 $
EGVA 181051Z AUTO 24016G23KT 9999 BKN029 19/12 A2976 RMK AO2 SLP079 $